Time;durP1;ratioP1;P1;durP2;ratioP2;P2;SDS_P1;SDS_P2;PMS_P1;PMS_P2;Temp;Humidity;BMP_temperature;BMP_pressure;BME280_temperature;BME280_humidity;BME280_pressure;Samples;Min_cycle;Max_cycle;Signal;HPM_P1;HPM_P2
2023/07/29 00:00:56;;;;;;;1.63;1.13;;;19.10;90.10;;;;;;4995037;28;20532;-82
2023/07/29 00:03:21;;;;;;;3.20;1.20;;;19.10;90.10;;;;;;4997609;28;20027;-83
2023/07/29 00:05:47;;;;;;;2.33;1.40;;;19.10;90.10;;;;;;4997220;28;20064;-83
2023/07/29 00:08:13;;;;;;;1.55;1.20;;;19.10;90.10;;;;;;4997428;28;20026;-82
2023/07/29 00:10:38;;;;;;;2.40;1.25;;;19.10;90.10;;;;;;4996355;28;20053;-82
2023/07/29 00:13:05;;;;;;;2.03;1.30;;;19.20;90.10;;;;;;4995744;28;20015;-83
2023/07/29 00:15:31;;;;;;;1.50;1.00;;;19.20;90.00;;;;;;4995137;28;20058;-81
2023/07/29 00:17:56;;;;;;;1.98;1.30;;;19.20;90.00;;;;;;4995338;28;20030;-81
2023/07/29 00:20:22;;;;;;;1.40;1.10;;;19.20;90.00;;;;;;5012543;28;20022;-82
2023/07/29 00:22:49;;;;;;;1.83;1.10;;;19.20;89.90;;;;;;5011866;28;20505;-81
2023/07/29 00:25:16;;;;;;;1.58;1.10;;;19.20;89.90;;;;;;4993124;28;20050;-82
2023/07/29 00:27:42;;;;;;;1.95;1.30;;;19.20;89.90;;;;;;4992545;28;20038;-80
2023/07/29 00:30:08;;;;;;;2.20;1.25;;;19.20;89.90;;;;;;4992221;28;20508;-81
2023/07/29 00:32:35;;;;;;;1.90;1.25;;;19.20;89.90;;;;;;4992315;28;20027;-80
2023/07/29 00:35:01;;;;;;;1.92;1.10;;;19.20;89.90;;;;;;5008951;28;20044;-80
2023/07/29 00:37:27;;;;;;;1.55;1.20;;;19.20;90.00;;;;;;4990973;28;20034;-82
2023/07/29 00:39:53;;;;;;;1.92;1.10;;;19.20;90.00;;;;;;4991157;28;20022;-81
2023/07/29 00:42:18;;;;;;;1.55;1.00;;;19.20;90.00;;;;;;4990138;28;20447;-81
2023/07/29 00:44:44;;;;;;;1.80;1.20;;;19.10;90.00;;;;;;4988999;28;20030;-81
2023/07/29 00:47:11;;;;;;;1.50;1.10;;;19.10;90.10;;;;;;4989123;28;20037;-82
2023/07/29 00:49:36;;;;;;;1.80;1.00;;;19.10;90.00;;;;;;4988917;28;20018;-80
2023/07/29 00:52:02;;;;;;;1.52;1.00;;;19.10;90.00;;;;;;4987607;28;20374;-80
2023/07/29 00:54:28;;;;;;;2.80;1.10;;;19.10;90.10;;;;;;4988072;28;20093;-80
2023/07/29 00:56:53;;;;;;;2.15;1.23;;;19.10;90.10;;;;;;4988423;28;20026;-81
2023/07/29 00:59:19;;;;;;;1.73;1.00;;;19.10;90.10;;;;;;4987105;28;20093;-81
2023/07/29 01:01:45;;;;;;;3.08;1.27;;;19.10;90.10;;;;;;5004956;28;20026;-80
2023/07/29 01:04:10;;;;;;;2.10;1.38;;;19.10;90.10;;;;;;4986239;28;20476;-80
2023/07/29 01:07:16;;;;;;;2.55;1.10;;;19.10;90.10;;;;;;4986091;28;20377;-82
2023/07/29 01:10:02;;;;;;;1.88;1.20;;;19.10;90.10;;;;;;5004410;28;20122;-81
2023/07/29 01:12:47;;;;;;;1.60;1.05;;;19.10;90.10;;;;;;4984260;28;20026;-80
2023/07/29 01:15:24;;;;;;;1.58;1.13;;;19.10;90.10;;;;;;4985313;28;20026;-80
2023/07/29 01:17:55;;;;;;;1.48;1.00;;;19.10;90.10;;;;;;4983901;28;20484;-80
2023/07/29 01:20:23;;;;;;;;;;;19.10;90.10;;;;;;4985468;28;20381;-80
2023/07/29 01:22:49;;;;;;;1.38;1.00;;;19.10;90.10;;;;;;4984761;28;19902;-82
2023/07/29 01:25:14;;;;;;;2.13;1.20;;;19.10;90.10;;;;;;4984708;28;20531;-80
2023/07/29 01:27:43;;;;;;;2.42;1.20;;;19.10;90.10;;;;;;5001699;28;20372;-80
2023/07/29 01:30:09;;;;;;;2.20;1.10;;;19.00;90.10;;;;;;5001910;28;20488;-80
2023/07/29 01:32:39;;;;;;;1.65;1.20;;;19.10;90.10;;;;;;5001354;28;20022;-80
2023/07/29 01:35:11;;;;;;;1.43;1.13;;;19.10;90.10;;;;;;4983368;28;20057;-80
2023/07/29 01:37:39;;;;;;;1.52;1.10;;;19.10;90.10;;;;;;5000569;28;20266;-80
2023/07/29 01:40:06;;;;;;;1.75;1.10;;;19.10;90.20;;;;;;5000867;28;20015;-80
2023/07/29 01:42:32;;;;;;;2.05;0.90;;;19.10;90.10;;;;;;4982085;28;20113;-80
2023/07/29 01:44:58;;;;;;;0.98;0.88;;;19.20;90.10;;;;;;4981566;28;20176;-80
2023/07/29 01:47:23;;;;;;;2.22;1.10;;;19.20;90.10;;;;;;4981980;28;20524;-79
2023/07/29 01:49:49;;;;;;;2.55;1.58;;;19.20;90.00;;;;;;4999819;28;20018;-80
2023/07/29 01:52:14;;;;;;;1.95;1.25;;;19.20;90.00;;;;;;4999835;28;20042;-79
2023/07/29 01:54:40;;;;;;;1.75;1.10;;;19.20;90.00;;;;;;4999791;28;20030;-79
2023/07/29 01:57:05;;;;;;;1.83;1.00;;;19.20;90.00;;;;;;4981677;28;20019;-80
2023/07/29 01:59:31;;;;;;;1.58;1.10;;;19.20;90.00;;;;;;4981077;28;20027;-80
2023/07/29 02:01:56;;;;;;;1.70;1.10;;;19.20;90.00;;;;;;4981192;28;20029;-80
2023/07/29 02:04:22;;;;;;;2.10;1.27;;;19.20;90.00;;;;;;4981581;28;20156;-80
2023/07/29 02:06:47;;;;;;;1.92;1.20;;;19.20;90.00;;;;;;4981755;28;20094;-80
2023/07/29 02:09:13;;;;;;;1.00;0.90;;;19.20;90.00;;;;;;4981656;28;20018;-80
2023/07/29 02:11:38;;;;;;;1.65;1.17;;;19.20;90.10;;;;;;4980978;28;20029;-80
2023/07/29 02:14:04;;;;;;;1.63;1.10;;;19.20;90.10;;;;;;4981168;28;20531;-81
2023/07/29 02:16:29;;;;;;;1.30;1.00;;;19.10;90.10;;;;;;4981988;28;20026;-80
2023/07/29 02:18:55;;;;;;;1.58;1.00;;;19.10;90.10;;;;;;4999885;28;20021;-80
2023/07/29 02:21:20;;;;;;;1.90;0.95;;;19.10;90.10;;;;;;4981381;28;20018;-80
2023/07/29 02:23:46;;;;;;;1.30;1.00;;;19.10;90.10;;;;;;4999027;28;20026;-80
2023/07/29 02:26:11;;;;;;;2.15;1.00;;;19.10;90.10;;;;;;4980668;28;20026;-79
2023/07/29 02:28:37;;;;;;;1.35;0.88;;;19.10;90.10;;;;;;4980608;28;20023;-80
2023/07/29 02:31:23;;;;;;;3.17;1.17;;;19.10;90.20;;;;;;4979309;28;20011;-79
2023/07/29 02:33:49;;;;;;;1.23;1.02;;;19.10;90.20;;;;;;4975071;28;20116;-80
2023/07/29 02:36:15;;;;;;;1.60;1.02;;;19.10;90.20;;;;;;4979659;28;20026;-80
2023/07/29 02:38:41;;;;;;;2.13;1.35;;;19.10;90.20;;;;;;4998120;28;20026;-79
2023/07/29 02:41:09;;;;;;;1.23;1.00;;;19.10;90.20;;;;;;4979872;28;20109;-80
2023/07/29 02:43:35;;;;;;;1.38;1.08;;;19.10;90.20;;;;;;4980438;28;20029;-80
2023/07/29 02:46:01;;;;;;;1.10;0.90;;;19.10;90.20;;;;;;4980040;28;20025;-79
2023/07/29 02:48:28;;;;;;;1.40;0.93;;;19.10;90.20;;;;;;4997933;28;20022;-80
2023/07/29 02:50:53;;;;;;;1.63;1.20;;;19.10;90.20;;;;;;4997478;28;20079;-80
2023/07/29 02:53:19;;;;;;;1.48;0.95;;;19.10;90.20;;;;;;4997175;28;20015;-80
2023/07/29 02:55:44;;;;;;;1.30;0.95;;;19.10;90.20;;;;;;4997525;28;20026;-80
2023/07/29 02:58:10;;;;;;;1.50;1.00;;;19.10;90.20;;;;;;4997363;28;20022;-80
2023/07/29 03:00:35;;;;;;;1.10;0.98;;;19.10;90.20;;;;;;4997440;28;20022;-80
2023/07/29 03:03:01;;;;;;;1.48;0.90;;;19.10;90.20;;;;;;4979415;28;20034;-79
2023/07/29 03:05:29;;;;;;;2.05;1.10;;;19.10;90.20;;;;;;4997064;28;20014;-79
2023/07/29 03:07:55;;;;;;;1.60;1.10;;;19.10;90.20;;;;;;4996441;28;20074;-81
2023/07/29 03:10:22;;;;;;;1.23;0.95;;;19.10;90.30;;;;;;5011677;28;20026;-82
2023/07/29 03:12:47;;;;;;;1.50;1.00;;;19.10;90.20;;;;;;4994452;28;20026;-81
2023/07/29 03:15:13;;;;;;;1.45;1.08;;;19.20;90.20;;;;;;4994266;28;20026;-82
2023/07/29 03:17:38;;;;;;;1.85;1.10;;;19.20;90.20;;;;;;4993778;28;20796;-81
2023/07/29 03:20:04;;;;;;;1.88;1.10;;;19.20;90.20;;;;;;4993713;28;20026;-81
2023/07/29 03:22:30;;;;;;;1.50;1.00;;;19.20;90.10;;;;;;4993378;28;20023;-82
2023/07/29 03:24:55;;;;;;;1.77;1.10;;;19.20;90.10;;;;;;4991840;28;20037;-80
2023/07/29 03:27:21;;;;;;;1.50;0.90;;;19.20;90.10;;;;;;4991665;28;20030;-82
2023/07/29 03:29:47;;;;;;;1.75;1.10;;;19.20;90.10;;;;;;5009145;28;20725;-82
2023/07/29 03:32:13;;;;;;;1.40;1.10;;;19.20;90.00;;;;;;4993264;28;20022;-83
2023/07/29 03:34:40;;;;;;;2.33;1.20;;;19.20;90.00;;;;;;4994645;28;20068;-83
2023/07/29 03:37:06;;;;;;;1.45;1.13;;;19.20;90.10;;;;;;4994269;28;20457;-82
2023/07/29 03:39:32;;;;;;;1.45;1.10;;;19.20;90.10;;;;;;4993696;28;20034;-82
2023/07/29 03:41:58;;;;;;;1.77;1.00;;;19.10;90.10;;;;;;4993129;28;20053;-82
2023/07/29 03:44:23;;;;;;;1.73;1.05;;;19.20;90.10;;;;;;4992070;28;20022;-83
2023/07/29 03:46:49;;;;;;;1.63;1.20;;;19.20;90.20;;;;;;5010224;28;20040;-80
2023/07/29 03:49:15;;;;;;;1.70;1.10;;;19.10;90.10;;;;;;4991551;28;20042;-82
2023/07/29 03:51:40;;;;;;;1.13;0.93;;;19.10;90.20;;;;;;4992057;28;20070;-80
2023/07/29 03:54:06;;;;;;;1.40;1.00;;;19.10;90.20;;;;;;4990844;28;20119;-81
2023/07/29 03:56:32;;;;;;;2.55;1.10;;;19.10;90.20;;;;;;4990873;28;20392;-81
2023/07/29 03:59:05;;;;;;;1.70;0.90;;;19.10;90.20;;;;;;4990399;28;20015;-80
2023/07/29 04:01:31;;;;;;;1.45;1.00;;;19.10;90.20;;;;;;4989850;28;20042;-82
2023/07/29 04:03:57;;;;;;;1.42;0.93;;;19.20;90.30;;;;;;4989098;28;20041;-80
2023/07/29 04:06:23;;;;;;;1.83;1.20;;;19.10;90.30;;;;;;4989439;28;20053;-81
2023/07/29 04:08:49;;;;;;;1.65;0.90;;;19.10;90.30;;;;;;4988681;28;20022;-80
2023/07/29 04:11:14;;;;;;;2.92;1.27;;;19.10;90.30;;;;;;5006485;28;20050;-81
2023/07/29 04:13:40;;;;;;;1.13;0.90;;;19.10;90.30;;;;;;4987037;28;20531;-81
2023/07/29 04:16:06;;;;;;;1.83;1.10;;;19.10;90.30;;;;;;4987731;28;20022;-80
2023/07/29 04:18:31;;;;;;;1.38;1.00;;;19.10;90.30;;;;;;4987441;28;20026;-80
2023/07/29 04:20:57;;;;;;;1.50;1.00;;;19.10;90.30;;;;;;4987562;28;20085;-80
2023/07/29 04:23:22;;;;;;;1.73;1.10;;;19.10;90.30;;;;;;5004302;28;20026;-81
2023/07/29 04:25:49;;;;;;;1.75;1.17;;;19.10;90.30;;;;;;4986222;28;20496;-82
2023/07/29 04:28:15;;;;;;;1.83;1.10;;;19.00;90.30;;;;;;5003408;28;20468;-80
2023/07/29 04:30:41;;;;;;;1.98;1.00;;;19.10;90.30;;;;;;4985650;28;20101;-80
2023/07/29 04:33:06;;;;;;;1.45;1.13;;;19.10;90.30;;;;;;5004140;28;20113;-80
2023/07/29 04:35:32;;;;;;;1.77;1.08;;;19.10;90.30;;;;;;4992951;28;20029;-80
2023/07/29 04:37:57;;;;;;;1.35;1.00;;;19.10;90.30;;;;;;5006533;28;20447;-80
2023/07/29 04:40:23;;;;;;;1.30;1.00;;;19.10;90.20;;;;;;5007371;28;20103;-82
2023/07/29 04:42:49;;;;;;;1.55;0.93;;;19.10;90.30;;;;;;5007445;28;20089;-81
2023/07/29 04:45:15;;;;;;;1.48;0.98;;;19.10;90.30;;;;;;5002438;28;20396;-80
2023/07/29 04:47:41;;;;;;;1.70;1.20;;;19.10;90.20;;;;;;4991898;28;20029;-79
2023/07/29 04:50:07;;;;;;;1.23;1.00;;;19.20;90.20;;;;;;4987515;28;20018;-80
2023/07/29 04:52:32;;;;;;;1.25;1.00;;;19.20;90.20;;;;;;4986219;28;20031;-80
2023/07/29 04:54:58;;;;;;;1.58;1.10;;;19.20;90.10;;;;;;5004783;28;20084;-83
2023/07/29 04:57:23;;;;;;;1.48;0.90;;;19.20;90.10;;;;;;4985939;28;20030;-80
2023/07/29 04:59:49;;;;;;;0.98;0.85;;;19.20;90.10;;;;;;4984952;28;20026;-80
2023/07/29 05:02:15;;;;;;;1.13;0.90;;;19.20;90.00;;;;;;4985883;28;20026;-79
2023/07/29 05:04:40;;;;;;;1.92;1.08;;;19.20;90.00;;;;;;4985004;28;20026;-81
2023/07/29 05:07:06;;;;;;;1.30;1.02;;;19.20;90.00;;;;;;5004950;28;20019;-80
2023/07/29 05:09:32;;;;;;;1.40;0.90;;;19.20;90.00;;;;;;4985331;28;20559;-80
2023/07/29 05:11:57;;;;;;;1.20;1.00;;;19.20;90.00;;;;;;4985768;28;20018;-81
2023/07/29 05:14:23;;;;;;;1.75;1.08;;;19.20;90.10;;;;;;4985209;28;20034;-80
2023/07/29 05:16:49;;;;;;;1.00;0.90;;;19.20;90.10;;;;;;4982813;28;20053;-81
2023/07/29 05:19:15;;;;;;;1.58;1.13;;;19.20;90.20;;;;;;4980595;28;20028;-82
2023/07/29 05:21:40;;;;;;;1.35;0.98;;;19.10;90.20;;;;;;4999619;28;20042;-82
2023/07/29 05:24:09;;;;;;;1.23;0.90;;;19.10;90.20;;;;;;4978441;28;20022;-79
2023/07/29 05:44:55;;;;;;;2.42;1.13;;;19.20;90.40;;;;;;4902480;29;20112;-83
2023/07/29 06:05:20;;;;;;;1.10;0.90;;;19.10;90.30;;;;;;4869053;29;20053;-81
2023/07/29 06:07:47;;;;;;;1.50;1.00;;;20.60;90.70;;;;;;4902909;29;20020;-79
2023/07/29 06:10:34;;;;;;;1.30;1.02;;;20.30;90.60;;;;;;4904994;29;20040;-83
2023/07/29 06:17:14;;;;;;;1.65;1.00;;;19.10;90.30;;;;;;4983378;28;20263;-81
2023/07/29 06:24:21;;;;;;;1.02;0.90;;;19.20;90.30;;;;;;4913552;29;20073;-80
2023/07/29 06:26:55;;;;;;;1.52;1.13;;;19.20;90.20;;;;;;4871212;28;20401;-81
2023/07/29 06:29:33;;;;;;;;;;;;;;;;;;;;;
2023/07/29 06:32:13;;;;;;;1.50;1.10;;;20.10;90.30;;;;;;4997673;28;20113;-85
2023/07/29 06:35:02;;;;;;;1.02;0.85;;;19.20;90.10;;;;;;4978916;28;20029;-80
2023/07/29 06:37:45;;;;;;;1.98;1.30;;;20.10;90.30;;;;;;4982445;28;20027;-82
2023/07/29 06:40:13;;;;;;;1.55;1.08;;;19.30;90.00;;;;;;4988678;28;20031;-82
2023/07/29 06:42:44;;;;;;;2.25;1.20;;;19.20;90.00;;;;;;4986298;28;20045;-80
2023/07/29 06:45:13;;;;;;;1.42;1.00;;;19.80;90.10;;;;;;4986318;28;20556;-80
2023/07/29 06:47:46;;;;;;;1.33;1.08;;;19.30;90.00;;;;;;4985742;28;20133;-81
2023/07/29 06:50:14;;;;;;;1.42;1.02;;;19.20;90.00;;;;;;4985976;28;20562;-81
2023/07/29 06:52:40;;;;;;;1.17;1.00;;;19.30;90.10;;;;;;4985407;28;20045;-80
2023/07/29 06:55:37;;;;;;;1.30;1.00;;;19.20;90.10;;;;;;4985029;28;20034;-84
2023/07/29 07:09:34;;;;;;;1.15;0.90;;;19.20;90.20;;;;;;4901193;29;20100;-83
2023/07/29 07:15:40;;;;;;;1.25;1.02;;;19.20;90.30;;;;;;4871493;29;20599;-83
2023/07/29 07:18:06;;;;;;;1.02;0.85;;;19.20;90.30;;;;;;4919896;29;20028;-80
2023/07/29 07:20:32;;;;;;;1.38;1.15;;;19.90;90.40;;;;;;4964084;28;20595;-83
2023/07/29 07:22:57;;;;;;;1.30;1.05;;;19.90;90.40;;;;;;4979519;28;20421;-82
2023/07/29 07:25:26;;;;;;;1.63;1.10;;;19.10;90.20;;;;;;4978799;28;20034;-85
2023/07/29 07:27:51;;;;;;;1.13;1.02;;;19.50;90.60;;;;;;4977886;28;20118;-83
2023/07/29 07:33:30;;;;;;;2.05;1.10;;;19.20;90.30;;;;;;4975385;28;20035;-82
2023/07/29 07:35:55;;;;;;;1.60;1.10;;;18.90;90.20;;;;;;4973748;28;20023;-81
2023/07/29 07:38:21;;;;;;;1.70;1.20;;;19.80;90.40;;;;;;4975605;28;20026;-80
2023/07/29 07:40:55;;;;;;;1.70;1.10;;;20.00;90.40;;;;;;4973316;28;20030;-78
2023/07/29 07:43:20;;;;;;;2.10;1.20;;;19.20;90.20;;;;;;4971692;28;20022;-78
2023/07/29 07:45:46;;;;;;;1.95;1.20;;;19.20;90.10;;;;;;4970641;28;20358;-78
2023/07/29 07:48:12;;;;;;;1.77;1.15;;;19.20;90.10;;;;;;4972262;28;20773;-79
2023/07/29 07:50:38;;;;;;;2.30;1.25;;;19.30;90.10;;;;;;4973360;28;20053;-79
2023/07/29 07:53:04;;;;;;;2.20;1.40;;;19.40;90.00;;;;;;4973165;28;20836;-80
2023/07/29 07:55:29;;;;;;;1.75;1.27;;;19.40;90.00;;;;;;4972411;28;20066;-79
2023/07/29 07:57:55;;;;;;;2.20;1.30;;;19.40;90.00;;;;;;4974774;28;20034;-79
2023/07/29 08:00:21;;;;;;;2.75;1.60;;;19.30;89.90;;;;;;4971783;28;20023;-80
2023/07/29 08:02:46;;;;;;;2.83;1.50;;;19.40;89.80;;;;;;4972685;28;20046;-76
2023/07/29 08:05:12;;;;;;;3.60;1.73;;;19.50;89.80;;;;;;4971746;28;20031;-81
2023/07/29 08:07:37;;;;;;;2.70;1.50;;;19.50;89.70;;;;;;4971910;28;20081;-79
2023/07/29 08:10:03;;;;;;;3.17;1.63;;;19.50;89.50;;;;;;4971682;28;20027;-80
2023/07/29 08:12:29;;;;;;;2.30;1.48;;;19.50;89.40;;;;;;4973163;28;20022;-81
2023/07/29 08:14:54;;;;;;;2.60;1.50;;;19.50;89.30;;;;;;4975299;28;20473;-81
2023/07/29 08:17:20;;;;;;;2.38;1.58;;;19.60;89.30;;;;;;4976488;28;20027;-82
2023/07/29 08:19:45;;;;;;;1.90;1.40;;;19.50;89.20;;;;;;4975008;28;20025;-79
2023/07/29 08:22:11;;;;;;;2.67;1.30;;;19.60;89.30;;;;;;4976207;28;20043;-79
2023/07/29 08:24:36;;;;;;;1.60;1.30;;;19.50;89.30;;;;;;4975308;28;20030;-80
2023/07/29 08:27:02;;;;;;;1.83;1.30;;;19.50;89.30;;;;;;4975341;28;20404;-82
2023/07/29 08:29:30;;;;;;;3.58;1.83;;;19.50;89.50;;;;;;4975721;28;20097;-80
2023/07/29 08:31:55;;;;;;;2.28;1.40;;;19.50;89.70;;;;;;4974332;28;20022;-80
2023/07/29 08:34:21;;;;;;;2.58;1.50;;;19.40;89.80;;;;;;4974414;28;20023;-81
2023/07/29 08:36:46;;;;;;;3.58;1.63;;;19.40;89.80;;;;;;4975989;28;20834;-81
2023/07/29 08:39:12;;;;;;;2.60;1.50;;;19.40;89.90;;;;;;4975219;28;20030;-79
2023/07/29 08:41:40;;;;;;;18.73;2.72;;;19.40;90.00;;;;;;4972300;28;20354;-81
2023/07/29 08:44:18;;;;;;;14.48;2.30;;;19.40;90.50;;;;;;4975948;28;20039;-79
2023/07/29 08:46:44;;;;;;;8.05;2.15;;;19.50;90.40;;;;;;4975001;28;20026;-79
2023/07/29 08:49:46;;;;;;;9.23;2.20;;;19.40;90.00;;;;;;5085773;27;2162132;-79
2023/07/29 08:52:13;;;;;;;10.60;2.08;;;19.40;90.30;;;;;;5134369;28;20256;-79
2023/07/29 08:54:39;;;;;;;9.50;1.90;;;19.40;90.20;;;;;;5130174;28;20027;-79
2023/07/29 08:57:06;;;;;;;6.07;1.65;;;19.40;90.20;;;;;;5094653;28;20024;-79
2023/07/29 08:59:32;;;;;;;9.00;2.05;;;19.50;90.10;;;;;;5113618;28;20019;-80
2023/07/29 09:01:59;;;;;;;11.57;2.22;;;19.50;90.10;;;;;;5094018;28;20077;-79
2023/07/29 09:04:25;;;;;;;11.90;1.95;;;19.50;90.00;;;;;;5112805;28;20020;-79
2023/07/29 09:06:51;;;;;;;10.40;2.00;;;19.50;90.00;;;;;;5094948;28;20487;-79
2023/07/29 09:09:16;;;;;;;6.85;2.10;;;19.60;90.00;;;;;;5094228;28;20016;-78
2023/07/29 09:11:42;;;;;;;7.72;2.20;;;19.60;89.80;;;;;;5094624;28;20022;-80
2023/07/29 09:14:08;;;;;;;6.28;1.92;;;19.60;89.60;;;;;;5094143;28;20043;-79
2023/07/29 09:16:34;;;;;;;10.20;1.90;;;19.70;89.50;;;;;;5093944;28;20023;-79
2023/07/29 09:19:03;;;;;;;6.38;1.70;;;19.70;89.30;;;;;;5092818;28;20497;-81
2023/07/29 09:21:29;;;;;;;4.68;1.70;;;19.70;89.10;;;;;;5094140;28;20066;-78
2023/07/29 09:23:55;;;;;;;6.47;1.95;;;19.70;89.00;;;;;;5093509;28;20057;-78
2023/07/29 09:26:28;;;;;;;5.63;1.77;;;19.80;89.10;;;;;;5112623;28;20030;-78
2023/07/29 09:28:55;;;;;;;5.40;1.90;;;19.80;89.00;;;;;;5093913;28;20387;-78
2023/07/29 09:31:22;;;;;;;5.93;1.48;;;19.80;88.80;;;;;;5112329;28;20023;-80
2023/07/29 09:33:47;;;;;;;5.68;1.70;;;19.90;88.70;;;;;;5111959;28;20023;-79
2023/07/29 09:36:13;;;;;;;6.80;2.00;;;19.90;88.50;;;;;;5093284;28;20371;-79
2023/07/29 09:38:39;;;;;;;7.60;1.90;;;20.00;88.40;;;;;;5093393;28;20023;-79
2023/07/29 09:41:05;;;;;;;7.53;1.60;;;20.00;88.30;;;;;;5112403;28;20537;-79
2023/07/29 09:43:32;;;;;;;7.85;1.67;;;20.10;88.10;;;;;;5093230;28;20541;-78
2023/07/29 09:46:04;;;;;;;5.80;1.80;;;20.10;88.00;;;;;;5111668;28;20102;-78
2023/07/29 09:48:37;;;;;;;6.68;1.70;;;20.10;87.80;;;;;;5092431;28;20023;-79
2023/07/29 09:51:13;;;;;;;4.22;1.58;;;20.20;87.70;;;;;;5092736;28;20532;-78
2023/07/29 09:53:50;;;;;;;6.93;1.70;;;20.20;87.60;;;;;;5092835;28;20107;-78
2023/07/29 09:56:16;;;;;;;4.78;1.60;;;20.20;87.50;;;;;;5093127;28;20012;-78
2023/07/29 09:58:45;;;;;;;7.32;1.90;;;20.20;87.50;;;;;;5111206;28;20105;-80
2023/07/29 10:01:11;;;;;;;4.57;1.70;;;20.20;87.50;;;;;;5073204;28;20052;-78
2023/07/29 10:03:37;;;;;;;6.30;1.60;;;20.20;87.70;;;;;;5076304;28;20032;-80
2023/07/29 10:06:06;;;;;;;4.15;1.30;;;20.20;87.70;;;;;;5069831;28;20039;-80
2023/07/29 10:08:35;;;;;;;3.70;1.40;;;20.20;87.80;;;;;;5087941;28;20016;-81
2023/07/29 10:11:02;;;;;;;3.97;1.52;;;20.10;87.90;;;;;;5066512;28;20019;-82
2023/07/29 10:13:28;;;;;;;3.85;1.60;;;20.10;87.90;;;;;;5087105;28;20017;-80
2023/07/29 10:15:55;;;;;;;4.53;1.50;;;20.10;87.90;;;;;;5088932;28;20428;-82
2023/07/29 10:18:22;;;;;;;3.53;1.52;;;20.10;88.00;;;;;;5088501;28;20538;-82
2023/07/29 10:20:51;;;;;;;7.15;1.80;;;20.10;87.90;;;;;;5097826;28;20052;-81
2023/07/29 10:23:18;;;;;;;5.53;1.50;;;20.10;87.90;;;;;;5083763;28;20024;-83
2023/07/29 10:25:47;;;;;;;4.57;1.80;;;20.10;87.80;;;;;;5108129;28;20080;-84
2023/07/29 10:28:16;;;;;;;3.33;1.70;;;20.10;87.80;;;;;;5091600;28;20026;-83
2023/07/29 10:30:41;;;;;;;3.80;1.50;;;20.10;87.90;;;;;;5109669;28;20023;-83
2023/07/29 10:33:07;;;;;;;3.25;1.42;;;20.10;87.80;;;;;;5092300;28;20020;-82
2023/07/29 10:35:33;;;;;;;3.10;1.45;;;20.10;87.90;;;;;;5110306;28;20017;-84
2023/07/29 10:38:00;;;;;;;3.65;1.40;;;20.10;88.10;;;;;;5090813;28;20020;-82
2023/07/29 10:40:25;;;;;;;5.13;1.67;;;20.10;88.10;;;;;;5090586;28;20016;-80
2023/07/29 10:43:11;;;;;;;3.17;1.65;;;20.10;88.10;;;;;;5106843;28;20043;-79
2023/07/29 10:45:41;;;;;;;4.25;1.50;;;20.10;88.20;;;;;;5107536;28;20048;-79
2023/07/29 10:48:32;;;;;;;3.05;1.40;;;20.10;88.20;;;;;;5089332;28;20023;-82
2023/07/29 10:51:21;;;;;;;2.20;1.30;;;20.10;88.20;;;;;;5048749;28;20539;-84
2023/07/29 10:53:47;;;;;;;5.25;1.35;;;20.10;88.10;;;;;;5102365;28;20035;-81
2023/07/29 10:56:13;;;;;;;3.85;1.40;;;20.10;88.20;;;;;;5084071;28;20016;-82
2023/07/29 10:58:38;;;;;;;4.20;1.55;;;20.10;88.20;;;;;;5100318;28;20016;-83
2023/07/29 11:01:13;;;;;;;3.63;1.17;;;20.10;88.20;;;;;;5101860;28;20028;-81
2023/07/29 11:03:38;;;;;;;2.85;1.65;;;20.10;88.20;;;;;;5083084;28;20020;-83
2023/07/29 11:06:07;;;;;;;2.75;1.30;;;20.10;88.10;;;;;;5101706;28;20046;-81
2023/07/29 11:08:33;;;;;;;2.58;1.33;;;20.10;88.00;;;;;;5100351;28;20023;-81
2023/07/29 11:11:02;;;;;;;3.20;1.30;;;20.20;88.10;;;;;;5081059;28;20012;-83
2023/07/29 11:13:36;;;;;;;4.55;1.60;;;20.20;88.00;;;;;;5099534;28;20052;-82
2023/07/29 11:16:02;;;;;;;4.20;1.52;;;20.20;87.90;;;;;;5100540;28;20070;-81
2023/07/29 11:18:33;;;;;;;2.60;1.38;;;20.20;87.90;;;;;;5081269;28;20044;-81
2023/07/29 11:20:59;;;;;;;3.47;1.27;;;20.20;87.80;;;;;;5100304;28;20020;-82
2023/07/29 11:23:34;;;;;;;2.95;1.23;;;20.20;87.80;;;;;;5081318;28;20054;-82
2023/07/29 11:26:01;;;;;;;2.72;1.13;;;20.20;87.90;;;;;;5099992;28;20489;-81
2023/07/29 11:28:27;;;;;;;2.05;1.20;;;20.10;87.80;;;;;;5098643;28;20059;-81
2023/07/29 11:30:55;;;;;;;2.63;1.35;;;20.20;87.90;;;;;;5095338;28;20376;-82
2023/07/29 11:33:26;;;;;;;2.42;1.30;;;20.20;87.90;;;;;;5097864;28;20031;-81
2023/07/29 11:35:52;;;;;;;3.22;1.15;;;20.10;87.80;;;;;;5099918;28;20016;-81
2023/07/29 11:38:19;;;;;;;3.28;1.30;;;20.10;87.90;;;;;;5081004;28;20040;-81
2023/07/29 11:41:05;;;;;;;3.33;1.20;;;20.00;87.90;;;;;;5100715;28;20487;-82
2023/07/29 11:43:35;;;;;;;3.10;1.10;;;20.10;88.10;;;;;;5081262;28;20031;-83
2023/07/29 11:46:01;;;;;;;2.70;1.30;;;20.10;88.20;;;;;;5088944;28;20404;-82
2023/07/29 11:48:32;;;;;;;2.20;1.17;;;20.10;88.30;;;;;;5057923;28;20025;-81
2023/07/29 11:50:58;;;;;;;2.15;1.10;;;20.10;88.40;;;;;;5061203;28;20020;-82
2023/07/29 11:53:27;;;;;;;4.25;1.38;;;20.00;88.30;;;;;;5098334;28;20016;-83
2023/07/29 11:55:53;;;;;;;2.70;1.25;;;20.10;88.30;;;;;;5077898;28;20023;-82
2023/07/29 11:58:20;;;;;;;2.63;1.13;;;20.00;88.30;;;;;;5096707;28;20028;-81
2023/07/29 12:00:46;;;;;;;2.15;1.00;;;20.00;88.30;;;;;;5096799;28;20028;-81
2023/07/29 12:03:12;;;;;;;4.65;1.10;;;20.00;88.30;;;;;;5079208;28;20016;-81
2023/07/29 12:05:38;;;;;;;2.65;1.30;;;20.00;88.30;;;;;;5097680;28;20027;-80
2023/07/29 12:08:03;;;;;;;2.50;1.40;;;20.00;88.30;;;;;;5097012;28;20153;-80
2023/07/29 12:10:30;;;;;;;2.15;1.00;;;20.00;88.30;;;;;;5077923;28;20016;-81
2023/07/29 12:12:55;;;;;;;1.88;1.10;;;20.00;88.40;;;;;;5078100;28;20120;-80
2023/07/29 12:15:29;;;;;;;3.47;1.15;;;20.00;88.40;;;;;;5096233;28;20016;-82
2023/07/29 12:17:56;;;;;;;2.75;1.17;;;20.00;88.40;;;;;;5077969;28;20020;-81
2023/07/29 12:20:22;;;;;;;1.95;1.00;;;20.00;88.50;;;;;;5077308;28;20023;-81
2023/07/29 12:23:02;;;;;;;2.15;1.30;;;20.00;88.50;;;;;;5095624;28;20089;-81
2023/07/29 12:25:28;;;;;;;2.45;1.20;;;20.00;88.60;;;;;;5095660;28;20020;-81
2023/07/29 12:27:54;;;;;;;2.00;1.05;;;20.00;88.60;;;;;;5076698;28;20074;-80
2023/07/29 12:30:24;;;;;;;2.55;1.13;;;19.90;88.70;;;;;;5077878;28;20016;-81
2023/07/29 12:32:50;;;;;;;2.85;1.00;;;19.90;88.70;;;;;;5076672;28;20107;-81
2023/07/29 12:35:15;;;;;;;3.15;1.33;;;19.90;88.80;;;;;;5076368;28;20048;-82
2023/07/29 12:37:42;;;;;;;4.07;1.20;;;19.90;88.90;;;;;;5094612;28;20016;-81
2023/07/29 12:40:21;;;;;;;4.13;1.10;;;19.90;88.90;;;;;;5094497;28;20036;-81
2023/07/29 12:42:46;;;;;;;1.77;1.00;;;19.90;88.80;;;;;;5094400;28;20024;-81
2023/07/29 12:45:12;;;;;;;3.50;1.20;;;20.00;88.90;;;;;;5075664;28;20027;-81
2023/07/29 12:47:37;;;;;;;1.45;1.00;;;19.90;88.50;;;;;;5075662;28;20372;-81
2023/07/29 12:50:03;;;;;;;2.35;1.10;;;20.00;88.40;;;;;;5075405;28;20161;-81
2023/07/29 12:52:28;;;;;;;1.45;1.17;;;20.00;88.30;;;;;;5075636;28;20035;-81
2023/07/29 12:54:54;;;;;;;3.20;1.20;;;20.00;88.20;;;;;;5093405;28;20025;-81
2023/07/29 12:57:19;;;;;;;2.72;0.98;;;20.10;88.20;;;;;;5075518;28;20016;-81
2023/07/29 12:59:45;;;;;;;2.88;1.20;;;20.00;88.10;;;;;;5093705;28;20229;-81
2023/07/29 13:02:10;;;;;;;1.80;0.95;;;20.00;88.10;;;;;;5075256;28;20028;-81
2023/07/29 13:04:36;;;;;;;2.35;1.10;;;20.00;88.10;;;;;;5093525;28;20028;-81
2023/07/29 13:07:01;;;;;;;2.90;1.30;;;20.00;88.20;;;;;;5093407;28;20111;-81
2023/07/29 13:09:27;;;;;;;1.42;1.05;;;20.00;88.20;;;;;;5075390;28;20294;-79
2023/07/29 13:11:52;;;;;;;2.65;1.10;;;20.00;88.30;;;;;;5075336;28;20073;-81
2023/07/29 13:14:18;;;;;;;1.67;1.08;;;20.00;88.30;;;;;;5074811;28;20051;-80
2023/07/29 13:16:43;;;;;;;1.55;1.05;;;20.00;88.40;;;;;;5075575;28;20016;-80
2023/07/29 13:19:09;;;;;;;1.77;1.02;;;19.90;88.50;;;;;;5075554;28;20035;-81
2023/07/29 13:21:34;;;;;;;1.98;1.00;;;19.90;88.60;;;;;;5074935;28;20101;-83
2023/07/29 13:24:00;;;;;;;1.85;1.20;;;19.90;88.60;;;;;;5074648;28;20396;-83
2023/07/29 13:26:25;;;;;;;2.08;1.05;;;19.90;88.60;;;;;;5074775;28;20591;-82
2023/07/29 13:28:51;;;;;;;1.92;1.17;;;19.90;88.70;;;;;;5074583;28;20032;-82
2023/07/29 13:31:16;;;;;;;1.90;1.00;;;19.90;88.70;;;;;;5074912;28;20043;-82
2023/07/29 13:33:42;;;;;;;1.63;1.10;;;19.90;88.80;;;;;;5085236;28;20039;-84
2023/07/29 13:36:10;;;;;;;1.60;1.00;;;19.90;88.90;;;;;;5092609;28;20016;-85
2023/07/29 13:38:36;;;;;;;2.10;1.00;;;19.90;88.90;;;;;;5089977;28;20099;-85
2023/07/29 13:41:02;;;;;;;1.60;1.00;;;19.90;88.90;;;;;;5091620;28;20499;-84
2023/07/29 13:43:27;;;;;;;2.33;1.10;;;19.90;88.90;;;;;;5093311;28;20023;-84
2023/07/29 13:45:53;;;;;;;2.10;1.10;;;19.80;88.90;;;;;;5110289;28;20020;-84
2023/07/29 13:48:19;;;;;;;1.40;0.93;;;19.80;88.90;;;;;;5091634;28;20083;-84
2023/07/29 13:50:45;;;;;;;2.28;1.10;;;19.90;88.90;;;;;;5108971;28;20028;-84
2023/07/29 13:53:11;;;;;;;1.70;1.20;;;19.80;88.80;;;;;;5086152;28;20023;-85